Madeline — WDE3220 — position and weather

sailwx.info

Track history (hours):
 
Tides and Currents Weather Stations Pressure Air Temp Water Temp Dewpoint Dewpoint Depression Visibility Wind Speed Wind Dir Waves Ship Positions

Madeline

Owner: TUG MADELINE, LLC, NEW CASTLE, DE. More information available from US FCC via Universal Licensing System and Coast Guard Vessel Documentation Center.

Last reported at 2016-Feb-12 11:33 UTC. Time now 2016-Feb-12 12:03 UTC.
Position N 39°51' W 075°16'.

; draft 4.6 m.

Type: Tug. MMSI: 367335830.

Date/timePositionNaut miles runAvg speedWind from/ knotsBaromVisibWave heightAir tempDewpointWater temp
2016-Feb-12 11:33N 39°51' W 075°16'4 4.0
2016-Feb-12 10:33N 39°53' W 075°11'1 1.3
2016-Feb-12 09:33N 39°53' W 075°10'2 1.8
2016-Feb-12 08:33N 39°54' W 075°08'5 4.7
2016-Feb-12 07:33N 39°58' W 075°06'1 1.3
2016-Feb-12 06:33N 39°59' W 075°04'1 0.8
2016-Feb-12 05:33N 39°59' W 075°05'0 0.0
2016-Feb-12 04:33N 39°59' W 075°05'0 0.0
2016-Feb-12 03:33N 39°59' W 075°05'0 0.0
2016-Feb-12 02:33N 39°59' W 075°05'0 0.0
2016-Feb-12 01:33N 39°59' W 075°05'7 6.5
2016-Feb-12 00:33N 39°53' W 075°09'5 4.7
2016-Feb-11 23:33N 39°51' W 075°15'0 0.0
2016-Feb-11 22:33N 39°51' W 075°15'6 6.1
2016-Feb-11 21:33N 39°54' W 075°08'0 0.2
2016-Feb-11 20:33N 39°54' W 075°08'0 0.2
2016-Feb-11 19:32N 39°54' W 075°08'0 0.0
2016-Feb-11 18:33N 39°54' W 075°08'0 0.0
2016-Feb-11 17:33N 39°54' W 075°08'0 0.3
2016-Feb-11 16:33N 39°54' W 075°08'2 1.6
2016-Feb-11 15:33N 39°53' W 075°09'2 1.7
2016-Feb-11 14:33N 39°54' W 075°08'0 0.4
2016-Feb-11 13:33N 39°54' W 075°08'0 0.0
2016-Feb-11 12:33N 39°54' W 075°08'0 0.0
2016-Feb-11 11:33N 39°54' W 075°08'0 0.0
2016-Feb-11 10:33N 39°54' W 075°08'0 0.0
2016-Feb-11 09:33N 39°54' W 075°08'0 0.0
2016-Feb-11 08:33N 39°54' W 075°08'0 0.0
2016-Feb-11 07:33N 39°54' W 075°08'0 0.0
2016-Feb-11 06:33N 39°54' W 075°08'0 0.0
2016-Feb-11 05:33N 39°54' W 075°08'0 0.0
2016-Feb-11 04:33N 39°54' W 075°08'0 0.0
2016-Feb-11 03:33N 39°54' W 075°08'0 0.0
2016-Feb-11 02:33N 39°54' W 075°08'0 0.0
2016-Feb-11 01:33N 39°54' W 075°08'0 0.0
2016-Feb-11 00:33N 39°54' W 075°08'0 0.0
2016-Feb-10 23:33N 39°54' W 075°08'0 0.0
2016-Feb-10 22:33N 39°54' W 075°08'0 0.0
2016-Feb-10 21:33N 39°54' W 075°08'2 2.3
2016-Feb-10 20:33N 39°53' W 075°11'0 0.0
2016-Feb-10 19:33N 39°53' W 075°11'0 0.0
2016-Feb-10 18:33N 39°53' W 075°11'0 0.0
2016-Feb-10 17:33N 39°53' W 075°11'0 0.0
2016-Feb-10 16:33N 39°53' W 075°11'0 0.0
2016-Feb-10 15:33N 39°53' W 075°11'0 0.0
2016-Feb-10 14:33N 39°53' W 075°11'0 0.0
2016-Feb-10 13:33N 39°53' W 075°11'0 0.0
2016-Feb-10 12:33N 39°53' W 075°11'0 0.0
2016-Feb-10 11:33N 39°53' W 075°11'0 0.0
2016-Feb-10 10:33N 39°53' W 075°11'0 0.0
2016-Feb-10 09:33N 39°53' W 075°11'0 0.0
2016-Feb-10 08:33N 39°53' W 075°11'3 3.2
2016-Feb-10 07:33N 39°55' W 075°08'4 4.3
2016-Feb-10 06:33N 39°59' W 075°04'0 0.0
2016-Feb-10 05:33N 39°59' W 075°04'0 0.1
2016-Feb-10 04:33N 39°59' W 075°05'3 3.2
2016-Feb-10 03:33N 39°57' W 075°08'3 2.6
2016-Feb-10 02:33N 39°59' W 075°05'0 0.0
2016-Feb-10 01:33N 39°59' W 075°05'0 0.0
2016-Feb-10 00:33N 39°59' W 075°05'4 4.2
2016-Feb-09 23:33N 39°55' W 075°08'3 3.0
2016-Feb-09 22:33N 39°53' W 075°11'0 0.0
2016-Feb-09 21:33N 39°53' W 075°11'0 0.0
2016-Feb-09 20:33N 39°53' W 075°11'0 0.0
2016-Feb-09 19:33N 39°53' W 075°11'0 0.0
2016-Feb-09 18:33N 39°53' W 075°11'2 1.9
2016-Feb-09 17:33N 39°52' W 075°13'0 0.2
2016-Feb-09 16:33N 39°52' W 075°13'0 0.2
2016-Feb-09 15:33N 39°52' W 075°13'0 0.0
2016-Feb-09 14:33N 39°52' W 075°13'0 0.0
2016-Feb-09 13:33N 39°52' W 075°13'0 0.0
2016-Feb-09 12:33N 39°52' W 075°13'0 0.0
2016-Feb-09 11:33N 39°52' W 075°13'5 4.5
2016-Feb-09 10:34N 39°54' W 075°08'0 0.2
2016-Feb-09 09:33N 39°54' W 075°08'0 0.3
2016-Feb-09 08:34N 39°54' W 075°08'0 0.0
2016-Feb-09 07:33N 39°54' W 075°08'0 0.0
2016-Feb-09 06:33N 39°54' W 075°08'0 0.0
2016-Feb-09 05:33N 39°54' W 075°08'1 1.0
2016-Feb-09 04:33N 39°53' W 075°09'1212.3
2016-Feb-09 03:33N 39°49' W 075°24'1010.3
2016-Feb-09 02:33N 39°40' W 075°32'1313.3
2016-Feb-09 01:33N 39°27' W 075°33'1414.3
2016-Feb-09 00:34N 39°16' W 075°21'1413.9
2016-Feb-08 23:33N 39°05' W 075°11'8 8.4
2016-Feb-08 22:33N 38°56' W 075°10'0 0.2
2016-Feb-08 21:33N 38°56' W 075°10'0 0.3
2016-Feb-08 20:33N 38°56' W 075°10'0 0.1
2016-Feb-08 19:32N 38°56' W 075°10'0 0.0
2016-Feb-08 18:33N 38°56' W 075°10'0 0.0
2016-Feb-08 17:33N 38°56' W 075°10'0 0.0
2016-Feb-08 16:32N 38°56' W 075°10'0 0.2
2016-Feb-08 15:30N 38°56' W 075°09'0 0.3
2016-Feb-08 14:22N 38°56' W 075°09'4 4.7
2016-Feb-08 13:33N 38°60' W 075°08'9 9.2
2016-Feb-08 12:34N 39°08' W 075°14'32 7.7
2016-Feb-08 08:22N 39°35' W 075°35'0 0.0
2016-Feb-08 07:33N 39°35' W 075°35'0 0.2
2016-Feb-08 06:33N 39°35' W 075°36'0 0.4
2016-Feb-08 05:34N 39°35' W 075°35'3 2.6
2016-Feb-08 04:33N 39°33' W 075°33'3 2.8
2016-Feb-08 03:33N 39°35' W 075°35'0 0.0
2016-Feb-08 02:33N 39°35' W 075°35'0 0.0
2016-Feb-08 01:33N 39°35' W 075°35'0 0.0
2016-Feb-08 00:33N 39°35' W 075°35'0 0.0
2016-Feb-07 23:33N 39°35' W 075°35'0 0.0
2016-Feb-07 22:33N 39°35' W 075°35'4 4.0
2016-Feb-07 21:34N 39°39' W 075°34'1313.3
2016-Feb-07 20:33N 39°49' W 075°23'1010.2
2016-Feb-07 19:34N 39°53' W 075°11'0 0.0
2016-Feb-07 18:33N 39°53' W 075°11'0 0.0
2016-Feb-07 17:33N 39°53' W 075°11'0 0.0
2016-Feb-07 16:34N 39°53' W 075°11'1 0.8
2016-Feb-07 15:33N 39°53' W 075°12'4 3.7
2016-Feb-07 14:33N 39°51' W 075°16'3 3.3
2016-Feb-07 13:34N 39°52' W 075°12'1 1.2
2016-Feb-07 12:33N 39°53' W 075°11'0 0.0
2016-Feb-07 11:33N 39°53' W 075°11'0 0.0
2016-Feb-07 10:33N 39°53' W 075°11'0 0.0
2016-Feb-07 09:34N 39°53' W 075°11'0 0.0
2016-Feb-07 08:33N 39°53' W 075°11'0 0.0
2016-Feb-07 07:33N 39°53' W 075°11'0 0.0
2016-Feb-07 06:34N 39°53' W 075°11'0 0.0
2016-Feb-07 05:33N 39°53' W 075°11'0 0.0
2016-Feb-07 04:34N 39°53' W 075°11'0 0.0
2016-Feb-07 03:33N 39°53' W 075°11'0 0.0
2016-Feb-07 02:34N 39°53' W 075°11'0 0.0
2016-Feb-07 01:33N 39°53' W 075°11'0 0.0
2016-Feb-07 00:34N 39°53' W 075°11'0 0.0
2016-Feb-06 23:34N 39°53' W 075°11'0 0.0
2016-Feb-06 22:33N 39°53' W 075°11'0 0.0
2016-Feb-06 21:33N 39°53' W 075°11'1 0.9
2016-Feb-06 20:33N 39°53' W 075°12'9 8.7
2016-Feb-06 19:34N 39°50' W 075°23'2 1.5
2016-Feb-06 18:33N 39°49' W 075°24'2 1.9
2016-Feb-06 17:33N 39°50' W 075°22'5 5.2
2016-Feb-06 16:34N 39°51' W 075°16'0 0.0
2016-Feb-06 15:34N 39°51' W 075°16'0 0.0
2016-Feb-06 14:33N 39°51' W 075°16'0 0.0
2016-Feb-06 13:33N 39°51' W 075°16'0 0.0
2016-Feb-06 12:34N 39°51' W 075°16'0 0.0
2016-Feb-06 11:33N 39°51' W 075°16'0 0.0
2016-Feb-06 10:33N 39°51' W 075°16'0 0.0
2016-Feb-06 09:33N 39°51' W 075°16'0 0.3
2016-Feb-06 08:34N 39°51' W 075°16'0 0.0
2016-Feb-06 07:33N 39°51' W 075°16'2 1.7
2016-Feb-06 06:34N 39°51' W 075°18'0 0.3
2016-Feb-06 05:34N 39°51' W 075°19'4 4.0
2016-Feb-06 04:33N 39°52' W 075°13'2 2.2
2016-Feb-06 03:33N 39°53' W 075°11'0 0.0
2016-Feb-06 02:34N 39°53' W 075°11'0 0.0
2016-Feb-06 01:33N 39°53' W 075°11'5 4.5
2016-Feb-06 00:33N 39°51' W 075°16'0 0.0
2016-Feb-05 23:34N 39°51' W 075°16'0 0.3
2016-Feb-05 22:33N 39°51' W 075°16'2 2.4
2016-Feb-05 21:33N 39°52' W 075°13'2 2.0
2016-Feb-05 20:33N 39°51' W 075°15'0 0.4
2016-Feb-05 19:33N 39°51' W 075°16'0 0.0
2016-Feb-05 18:33N 39°51' W 075°16'0 0.0
2016-Feb-05 17:33N 39°51' W 075°16'0 0.0
2016-Feb-05 16:33N 39°51' W 075°16'4 4.2
2016-Feb-05 15:33N 39°50' W 075°21'4 4.3
2016-Feb-05 14:33N 39°48' W 075°26'4 4.1
2016-Feb-05 13:33N 39°50' W 075°21'9 8.9
2016-Feb-05 12:33N 39°53' W 075°10'2 1.9
2016-Feb-05 11:33N 39°54' W 075°08'0 0.0
2016-Feb-05 10:33N 39°54' W 075°08'0 0.0
2016-Feb-05 09:33N 39°54' W 075°08'0 0.0
2016-Feb-05 08:33N 39°54' W 075°08'0 0.0
2016-Feb-05 07:33N 39°54' W 075°08'0 0.0
2016-Feb-05 06:34N 39°54' W 075°08'9 9.3
2016-Feb-05 05:33N 40°01' W 075°01'14 9.7
2016-Feb-05 04:09N 40°08' W 074°45'8 1.6
2016-Feb-04 23:33N 40°04' W 074°54'1110.6
2016-Feb-04 22:33N 39°59' W 075°05'0 0.0
2016-Feb-04 21:33N 39°59' W 075°05'0 0.0
2016-Feb-04 20:33N 39°59' W 075°05'0 0.0
2016-Feb-04 19:33N 39°59' W 075°05'0 0.0
2016-Feb-04 18:33N 39°59' W 075°05'0 0.0
2016-Feb-04 17:33N 39°59' W 075°05'0 0.0
2016-Feb-04 16:33N 39°59' W 075°05'0 0.0
2016-Feb-04 15:33N 39°59' W 075°05'0 0.0
2016-Feb-04 14:33N 39°59' W 075°05'0 0.1
2016-Feb-04 13:34N 39°59' W 075°05'0 0.4
2016-Feb-04 12:33N 39°59' W 075°05'0 0.0
2016-Feb-04 11:33N 39°59' W 075°05'0 0.0
2016-Feb-04 10:33N 39°59' W 075°05'0 0.0
2016-Feb-04 09:33N 39°59' W 075°05'4 4.1
2016-Feb-04 08:33N 39°55' W 075°08'2 1.7
2016-Feb-04 07:33N 39°57' W 075°08'3 3.0
2016-Feb-04 06:33N 39°59' W 075°05'0 0.0
2016-Feb-04 05:33N 39°59' W 075°05'0 0.0
2016-Feb-04 04:33N 39°59' W 075°05'0 0.0
2016-Feb-04 03:33N 39°59' W 075°05'0 0.0
2016-Feb-04 02:33N 39°59' W 075°05'0 0.0
2016-Feb-04 01:33N 39°59' W 075°05'0 0.0
2016-Feb-04 00:33N 39°59' W 075°05'0 0.0
2016-Feb-03 23:33N 39°59' W 075°05'0 0.0
2016-Feb-03 22:25N 39°59' W 075°05'1 0.7
2016-Feb-03 21:33N 39°59' W 075°06'0 0.0
2016-Feb-03 20:33N 39°59' W 075°06'4 4.2
2016-Feb-03 19:33N 39°55' W 075°08'1 1.0
2016-Feb-03 18:33N 39°54' W 075°08'0 0.0
2016-Feb-03 17:33N 39°54' W 075°08'0 0.0
2016-Feb-03 16:33N 39°54' W 075°08'0 0.0
2016-Feb-03 15:33N 39°54' W 075°08'0 0.0
2016-Feb-03 14:33N 39°54' W 075°08'0 0.1
2016-Feb-03 13:33N 39°54' W 075°08'0 0.0
2016-Feb-03 12:33N 39°54' W 075°08'0 0.0
2016-Feb-03 11:33N 39°54' W 075°08'1 1.4
2016-Feb-03 10:34N 39°53' W 075°09'1 1.3
2016-Feb-03 09:33N 39°54' W 075°08'0 0.0
2016-Feb-03 08:33N 39°54' W 075°08'0 0.0
2016-Feb-03 07:33N 39°54' W 075°08'0 0.0
2016-Feb-03 06:33N 39°54' W 075°08'0 0.4
2016-Feb-03 05:33N 39°54' W 075°08'2 2.2
2016-Feb-03 04:33N 39°53' W 075°10'1 0.9
2016-Feb-03 03:33N 39°53' W 075°09'1 1.4
2016-Feb-03 02:33N 39°53' W 075°11'0 0.0
2016-Feb-03 01:33N 39°53' W 075°11'0 0.0
2016-Feb-03 00:33N 39°53' W 075°11'0 0.0
2016-Feb-02 23:33N 39°53' W 075°11'1 1.2
2016-Feb-02 22:33N 39°53' W 075°10'1 1.3
2016-Feb-02 21:33N 39°54' W 075°08'0 0.0
2016-Feb-02 20:33N 39°54' W 075°08'0 0.0
2016-Feb-02 19:33N 39°54' W 075°08'0 0.0
2016-Feb-02 18:33N 39°54' W 075°08'0 0.0
2016-Feb-02 17:33N 39°54' W 075°08'0 0.0
2016-Feb-02 16:33N 39°54' W 075°08'0 0.0
2016-Feb-02 15:33N 39°54' W 075°08'5 5.3
2016-Feb-02 14:33N 39°59' W 075°05'0 0.5
2016-Feb-02 13:33N 39°59' W 075°06'0 0.4
2016-Feb-02 12:33N 39°59' W 075°05'0 0.0
2016-Feb-02 11:33N 39°59' W 075°05'  
Track history (hours):
 
Tides and Currents Weather Stations Pressure Air Temp Water Temp Dewpoint Dewpoint Depression Visibility Wind Speed Wind Dir Waves Ship Positions

Madeline

Owner: TUG MADELINE, LLC, NEW CASTLE, DE. More information available from US FCC via Universal Licensing System and Coast Guard Vessel Documentation Center.

Last reported at 2016-Feb-12 11:33 UTC. Time now 2016-Feb-12 12:03 UTC.
Position N 39°51' W 075°16'.

; draft 4.6 m.

Type: Tug. MMSI: 367335830.

Date/timePositionNaut miles runAvg speedWind from/ knotsBaromVisibWave heightAir tempDewpointWater temp
2016-Feb-12 11:33N 39°51' W 075°16'4 4.0
2016-Feb-12 10:33N 39°53' W 075°11'1 1.3
2016-Feb-12 09:33N 39°53' W 075°10'2 1.8
2016-Feb-12 08:33N 39°54' W 075°08'5 4.7
2016-Feb-12 07:33N 39°58' W 075°06'1 1.3
2016-Feb-12 06:33N 39°59' W 075°04'1 0.8
2016-Feb-12 05:33N 39°59' W 075°05'0 0.0
2016-Feb-12 04:33N 39°59' W 075°05'0 0.0
2016-Feb-12 03:33N 39°59' W 075°05'0 0.0
2016-Feb-12 02:33N 39°59' W 075°05'0 0.0
2016-Feb-12 01:33N 39°59' W 075°05'7 6.5
2016-Feb-12 00:33N 39°53' W 075°09'5 4.7
2016-Feb-11 23:33N 39°51' W 075°15'0 0.0
2016-Feb-11 22:33N 39°51' W 075°15'6 6.1
2016-Feb-11 21:33N 39°54' W 075°08'0 0.2
2016-Feb-11 20:33N 39°54' W 075°08'0 0.2
2016-Feb-11 19:32N 39°54' W 075°08'0 0.0
2016-Feb-11 18:33N 39°54' W 075°08'0 0.0
2016-Feb-11 17:33N 39°54' W 075°08'0 0.3
2016-Feb-11 16:33N 39°54' W 075°08'2 1.6
2016-Feb-11 15:33N 39°53' W 075°09'2 1.7
2016-Feb-11 14:33N 39°54' W 075°08'0 0.4
2016-Feb-11 13:33N 39°54' W 075°08'0 0.0
2016-Feb-11 12:33N 39°54' W 075°08'0 0.0
2016-Feb-11 11:33N 39°54' W 075°08'0 0.0
2016-Feb-11 10:33N 39°54' W 075°08'0 0.0
2016-Feb-11 09:33N 39°54' W 075°08'0 0.0
2016-Feb-11 08:33N 39°54' W 075°08'0 0.0
2016-Feb-11 07:33N 39°54' W 075°08'0 0.0
2016-Feb-11 06:33N 39°54' W 075°08'0 0.0
2016-Feb-11 05:33N 39°54' W 075°08'0 0.0
2016-Feb-11 04:33N 39°54' W 075°08'0 0.0
2016-Feb-11 03:33N 39°54' W 075°08'0 0.0
2016-Feb-11 02:33N 39°54' W 075°08'0 0.0
2016-Feb-11 01:33N 39°54' W 075°08'0 0.0
2016-Feb-11 00:33N 39°54' W 075°08'0 0.0
2016-Feb-10 23:33N 39°54' W 075°08'0 0.0
2016-Feb-10 22:33N 39°54' W 075°08'0 0.0
2016-Feb-10 21:33N 39°54' W 075°08'2 2.3
2016-Feb-10 20:33N 39°53' W 075°11'0 0.0
2016-Feb-10 19:33N 39°53' W 075°11'0 0.0
2016-Feb-10 18:33N 39°53' W 075°11'0 0.0
2016-Feb-10 17:33N 39°53' W 075°11'0 0.0
2016-Feb-10 16:33N 39°53' W 075°11'0 0.0
2016-Feb-10 15:33N 39°53' W 075°11'0 0.0
2016-Feb-10 14:33N 39°53' W 075°11'0 0.0
2016-Feb-10 13:33N 39°53' W 075°11'0 0.0
2016-Feb-10 12:33N 39°53' W 075°11'0 0.0
2016-Feb-10 11:33N 39°53' W 075°11'0 0.0
2016-Feb-10 10:33N 39°53' W 075°11'0 0.0
2016-Feb-10 09:33N 39°53' W 075°11'0 0.0
2016-Feb-10 08:33N 39°53' W 075°11'3 3.2
2016-Feb-10 07:33N 39°55' W 075°08'4 4.3
2016-Feb-10 06:33N 39°59' W 075°04'0 0.0
2016-Feb-10 05:33N 39°59' W 075°04'0 0.1
2016-Feb-10 04:33N 39°59' W 075°05'3 3.2
2016-Feb-10 03:33N 39°57' W 075°08'3 2.6
2016-Feb-10 02:33N 39°59' W 075°05'0 0.0
2016-Feb-10 01:33N 39°59' W 075°05'0 0.0
2016-Feb-10 00:33N 39°59' W 075°05'4 4.2
2016-Feb-09 23:33N 39°55' W 075°08'3 3.0
2016-Feb-09 22:33N 39°53' W 075°11'0 0.0
2016-Feb-09 21:33N 39°53' W 075°11'0 0.0
2016-Feb-09 20:33N 39°53' W 075°11'0 0.0
2016-Feb-09 19:33N 39°53' W 075°11'0 0.0
2016-Feb-09 18:33N 39°53' W 075°11'2 1.9
2016-Feb-09 17:33N 39°52' W 075°13'0 0.2
2016-Feb-09 16:33N 39°52' W 075°13'0 0.2
2016-Feb-09 15:33N 39°52' W 075°13'0 0.0
2016-Feb-09 14:33N 39°52' W 075°13'0 0.0
2016-Feb-09 13:33N 39°52' W 075°13'0 0.0
2016-Feb-09 12:33N 39°52' W 075°13'0 0.0
2016-Feb-09 11:33N 39°52' W 075°13'5 4.5
2016-Feb-09 10:34N 39°54' W 075°08'0 0.2
2016-Feb-09 09:33N 39°54' W 075°08'0 0.3
2016-Feb-09 08:34N 39°54' W 075°08'0 0.0
2016-Feb-09 07:33N 39°54' W 075°08'0 0.0
2016-Feb-09 06:33N 39°54' W 075°08'0 0.0
2016-Feb-09 05:33N 39°54' W 075°08'1 1.0
2016-Feb-09 04:33N 39°53' W 075°09'1212.3
2016-Feb-09 03:33N 39°49' W 075°24'1010.3
2016-Feb-09 02:33N 39°40' W 075°32'1313.3
2016-Feb-09 01:33N 39°27' W 075°33'1414.3
2016-Feb-09 00:34N 39°16' W 075°21'1413.9
2016-Feb-08 23:33N 39°05' W 075°11'8 8.4
2016-Feb-08 22:33N 38°56' W 075°10'0 0.2
2016-Feb-08 21:33N 38°56' W 075°10'0 0.3
2016-Feb-08 20:33N 38°56' W 075°10'0 0.1
2016-Feb-08 19:32N 38°56' W 075°10'0 0.0
2016-Feb-08 18:33N 38°56' W 075°10'0 0.0
2016-Feb-08 17:33N 38°56' W 075°10'0 0.0
2016-Feb-08 16:32N 38°56' W 075°10'0 0.2
2016-Feb-08 15:30N 38°56' W 075°09'0 0.3
2016-Feb-08 14:22N 38°56' W 075°09'4 4.7
2016-Feb-08 13:33N 38°60' W 075°08'9 9.2
2016-Feb-08 12:34N 39°08' W 075°14'32 7.7
2016-Feb-08 08:22N 39°35' W 075°35'0 0.0
2016-Feb-08 07:33N 39°35' W 075°35'0 0.2
2016-Feb-08 06:33N 39°35' W 075°36'0 0.4
2016-Feb-08 05:34N 39°35' W 075°35'3 2.6
2016-Feb-08 04:33N 39°33' W 075°33'3 2.8
2016-Feb-08 03:33N 39°35' W 075°35'0 0.0
2016-Feb-08 02:33N 39°35' W 075°35'0 0.0
2016-Feb-08 01:33N 39°35' W 075°35'0 0.0
2016-Feb-08 00:33N 39°35' W 075°35'0 0.0
2016-Feb-07 23:33N 39°35' W 075°35'0 0.0
2016-Feb-07 22:33N 39°35' W 075°35'4 4.0
2016-Feb-07 21:34N 39°39' W 075°34'1313.3
2016-Feb-07 20:33N 39°49' W 075°23'1010.2
2016-Feb-07 19:34N 39°53' W 075°11'0 0.0
2016-Feb-07 18:33N 39°53' W 075°11'0 0.0
2016-Feb-07 17:33N 39°53' W 075°11'0 0.0
2016-Feb-07 16:34N 39°53' W 075°11'1 0.8
2016-Feb-07 15:33N 39°53' W 075°12'4 3.7
2016-Feb-07 14:33N 39°51' W 075°16'3 3.3
2016-Feb-07 13:34N 39°52' W 075°12'1 1.2
2016-Feb-07 12:33N 39°53' W 075°11'0 0.0
2016-Feb-07 11:33N 39°53' W 075°11'0 0.0
2016-Feb-07 10:33N 39°53' W 075°11'0 0.0
2016-Feb-07 09:34N 39°53' W 075°11'0 0.0
2016-Feb-07 08:33N 39°53' W 075°11'0 0.0
2016-Feb-07 07:33N 39°53' W 075°11'0 0.0
2016-Feb-07 06:34N 39°53' W 075°11'0 0.0
2016-Feb-07 05:33N 39°53' W 075°11'0 0.0
2016-Feb-07 04:34N 39°53' W 075°11'0 0.0
2016-Feb-07 03:33N 39°53' W 075°11'0 0.0
2016-Feb-07 02:34N 39°53' W 075°11'0 0.0
2016-Feb-07 01:33N 39°53' W 075°11'0 0.0
2016-Feb-07 00:34N 39°53' W 075°11'0 0.0
2016-Feb-06 23:34N 39°53' W 075°11'0 0.0
2016-Feb-06 22:33N 39°53' W 075°11'0 0.0
2016-Feb-06 21:33N 39°53' W 075°11'1 0.9
2016-Feb-06 20:33N 39°53' W 075°12'9 8.7
2016-Feb-06 19:34N 39°50' W 075°23'2 1.5
2016-Feb-06 18:33N 39°49' W 075°24'2 1.9
2016-Feb-06 17:33N 39°50' W 075°22'5 5.2
2016-Feb-06 16:34N 39°51' W 075°16'0 0.0
2016-Feb-06 15:34N 39°51' W 075°16'0 0.0
2016-Feb-06 14:33N 39°51' W 075°16'0 0.0
2016-Feb-06 13:33N 39°51' W 075°16'0 0.0
2016-Feb-06 12:34N 39°51' W 075°16'0 0.0
2016-Feb-06 11:33N 39°51' W 075°16'0 0.0
2016-Feb-06 10:33N 39°51' W 075°16'0 0.0
2016-Feb-06 09:33N 39°51' W 075°16'0 0.3
2016-Feb-06 08:34N 39°51' W 075°16'0 0.0
2016-Feb-06 07:33N 39°51' W 075°16'2 1.7
2016-Feb-06 06:34N 39°51' W 075°18'0 0.3
2016-Feb-06 05:34N 39°51' W 075°19'4 4.0
2016-Feb-06 04:33N 39°52' W 075°13'2 2.2
2016-Feb-06 03:33N 39°53' W 075°11'0 0.0
2016-Feb-06 02:34N 39°53' W 075°11'0 0.0
2016-Feb-06 01:33N 39°53' W 075°11'5 4.5
2016-Feb-06 00:33N 39°51' W 075°16'0 0.0
2016-Feb-05 23:34N 39°51' W 075°16'0 0.3
2016-Feb-05 22:33N 39°51' W 075°16'2 2.4
2016-Feb-05 21:33N 39°52' W 075°13'2 2.0
2016-Feb-05 20:33N 39°51' W 075°15'0 0.4
2016-Feb-05 19:33N 39°51' W 075°16'0 0.0
2016-Feb-05 18:33N 39°51' W 075°16'0 0.0
2016-Feb-05 17:33N 39°51' W 075°16'0 0.0
2016-Feb-05 16:33N 39°51' W 075°16'4 4.2
2016-Feb-05 15:33N 39°50' W 075°21'4 4.3
2016-Feb-05 14:33N 39°48' W 075°26'4 4.1
2016-Feb-05 13:33N 39°50' W 075°21'9 8.9
2016-Feb-05 12:33N 39°53' W 075°10'2 1.9
2016-Feb-05 11:33N 39°54' W 075°08'0 0.0
2016-Feb-05 10:33N 39°54' W 075°08'0 0.0
2016-Feb-05 09:33N 39°54' W 075°08'0 0.0
2016-Feb-05 08:33N 39°54' W 075°08'0 0.0
2016-Feb-05 07:33N 39°54' W 075°08'0 0.0
2016-Feb-05 06:34N 39°54' W 075°08'9 9.3
2016-Feb-05 05:33N 40°01' W 075°01'14 9.7
2016-Feb-05 04:09N 40°08' W 074°45'8 1.6
2016-Feb-04 23:33N 40°04' W 074°54'1110.6
2016-Feb-04 22:33N 39°59' W 075°05'0 0.0
2016-Feb-04 21:33N 39°59' W 075°05'0 0.0
2016-Feb-04 20:33N 39°59' W 075°05'0 0.0
2016-Feb-04 19:33N 39°59' W 075°05'0 0.0
2016-Feb-04 18:33N 39°59' W 075°05'0 0.0
2016-Feb-04 17:33N 39°59' W 075°05'0 0.0
2016-Feb-04 16:33N 39°59' W 075°05'0 0.0
2016-Feb-04 15:33N 39°59' W 075°05'0 0.0
2016-Feb-04 14:33N 39°59' W 075°05'0 0.1
2016-Feb-04 13:34N 39°59' W 075°05'0 0.4
2016-Feb-04 12:33N 39°59' W 075°05'0 0.0
2016-Feb-04 11:33N 39°59' W 075°05'0 0.0
2016-Feb-04 10:33N 39°59' W 075°05'0 0.0
2016-Feb-04 09:33N 39°59' W 075°05'4 4.1
2016-Feb-04 08:33N 39°55' W 075°08'2 1.7
2016-Feb-04 07:33N 39°57' W 075°08'3 3.0
2016-Feb-04 06:33N 39°59' W 075°05'0 0.0
2016-Feb-04 05:33N 39°59' W 075°05'0 0.0
2016-Feb-04 04:33N 39°59' W 075°05'0 0.0
2016-Feb-04 03:33N 39°59' W 075°05'0 0.0
2016-Feb-04 02:33N 39°59' W 075°05'0 0.0
2016-Feb-04 01:33N 39°59' W 075°05'0 0.0
2016-Feb-04 00:33N 39°59' W 075°05'0 0.0
2016-Feb-03 23:33N 39°59' W 075°05'0 0.0
2016-Feb-03 22:25N 39°59' W 075°05'1 0.7
2016-Feb-03 21:33N 39°59' W 075°06'0 0.0
2016-Feb-03 20:33N 39°59' W 075°06'4 4.2
2016-Feb-03 19:33N 39°55' W 075°08'1 1.0
2016-Feb-03 18:33N 39°54' W 075°08'0 0.0
2016-Feb-03 17:33N 39°54' W 075°08'0 0.0
2016-Feb-03 16:33N 39°54' W 075°08'0 0.0
2016-Feb-03 15:33N 39°54' W 075°08'0 0.0
2016-Feb-03 14:33N 39°54' W 075°08'0 0.1
2016-Feb-03 13:33N 39°54' W 075°08'0 0.0
2016-Feb-03 12:33N 39°54' W 075°08'0 0.0
2016-Feb-03 11:33N 39°54' W 075°08'1 1.4
2016-Feb-03 10:34N 39°53' W 075°09'1 1.3
2016-Feb-03 09:33N 39°54' W 075°08'0 0.0
2016-Feb-03 08:33N 39°54' W 075°08'0 0.0
2016-Feb-03 07:33N 39°54' W 075°08'0 0.0
2016-Feb-03 06:33N 39°54' W 075°08'0 0.4
2016-Feb-03 05:33N 39°54' W 075°08'2 2.2
2016-Feb-03 04:33N 39°53' W 075°10'1 0.9
2016-Feb-03 03:33N 39°53' W 075°09'1 1.4
2016-Feb-03 02:33N 39°53' W 075°11'0 0.0
2016-Feb-03 01:33N 39°53' W 075°11'0 0.0
2016-Feb-03 00:33N 39°53' W 075°11'0 0.0
2016-Feb-02 23:33N 39°53' W 075°11'1 1.2
2016-Feb-02 22:33N 39°53' W 075°10'1 1.3
2016-Feb-02 21:33N 39°54' W 075°08'0 0.0
2016-Feb-02 20:33N 39°54' W 075°08'0 0.0
2016-Feb-02 19:33N 39°54' W 075°08'0 0.0
2016-Feb-02 18:33N 39°54' W 075°08'0 0.0
2016-Feb-02 17:33N 39°54' W 075°08'0 0.0
2016-Feb-02 16:33N 39°54' W 075°08'0 0.0
2016-Feb-02 15:33N 39°54' W 075°08'5 5.3
2016-Feb-02 14:33N 39°59' W 075°05'0 0.5
2016-Feb-02 13:33N 39°59' W 075°06'0 0.4
2016-Feb-02 12:33N 39°59' W 075°05'0 0.0
2016-Feb-02 11:33N 39°59' W 075°05'  

Dump ship's entire track history